首页
METAR-TAF:

METAR-TAF

机场 :

拉塞瓦, 洪都拉斯

纬度: 15-44N, 经度: 086-52W, 海拔: 3米

当前天气观测

该预报发布于25分钟前的15:00 UTC
静风
温度 24°C
湿度 74%
气压 1020 hPa
能见度10公里或以上
少量云层高于4500英尺
多云层高于7000英尺

METAR: MHLC 261500Z 00000KT 9999 FEW045 BKN070 24/19 Q1020 A3012 NOSIG

时间: 09:25 (15:25 UTC)

预报

该预报发布于4小时和25分钟前的11:00 UTC
预报有效从26日的 12点(UTC)到 27日的 12点(UTC)
风速2节,风向多变
能见度10公里或以上
少量云层高于3200英尺
成为
从 26日的 16点(UTC)到 26日的 18点(UTC)
风速14节,风向东转东北
成为
从 27日的 02点(UTC)到 27日的 04点(UTC)
风速3节,风向多变

TAF: MHLC 261100Z 2612/2712 VRB02KT 9999 FEW032 TX29/2619Z TN20/2712Z BECMG 2616/2618 06014KT BECMG 2702/2704 VRB03KT

超过4000个机场的气象观测和天气预报(METAR&TAF报告)。

可查询的气象台以黄色和红色小点在地图上表示。

将鼠标移到小点上方,可查看气象台名称。

然后点击查看天气观测和预报。

如需切换地图:点击带黑十字的绿色按钮放大地图;点击带横线的绿色按钮缩小地图;或者点击绿色箭头查看邻近地区的地图。


METAR-TAF: